sensor_id;sensor_type;location;lat;lon;timestamp;P1;durP1;ratioP1;P2;durP2;ratioP2
18435;SDS011;9346;52.006;4.720;2022-09-09T00:00:11;1.73;;;1.50;;
18435;SDS011;9346;52.006;4.720;2022-09-09T00:02:44;3.23;;;2.53;;
18435;SDS011;9346;52.006;4.720;2022-09-09T00:05:18;3.17;;;2.37;;
18435;SDS011;9346;52.006;4.720;2022-09-09T00:07:51;3.30;;;2.30;;
18435;SDS011;9346;52.006;4.720;2022-09-09T00:10:21;4.57;;;2.47;;
18435;SDS011;9346;52.006;4.720;2022-09-09T00:12:55;4.80;;;2.27;;
18435;SDS011;9346;52.006;4.720;2022-09-09T00:15:29;2.60;;;2.40;;
18435;SDS011;9346;52.006;4.720;2022-09-09T00:18:07;2.83;;;2.63;;
18435;SDS011;9346;52.006;4.720;2022-09-09T00:20:43;2.43;;;2.23;;
18435;SDS011;9346;52.006;4.720;2022-09-09T00:23:17;7.80;;;3.07;;
18435;SDS011;9346;52.006;4.720;2022-09-09T00:25:54;2.73;;;2.43;;
18435;SDS011;9346;52.006;4.720;2022-09-09T00:28:29;2.60;;;2.40;;
18435;SDS011;9346;52.006;4.720;2022-09-09T00:30:59;3.53;;;2.53;;
18435;SDS011;9346;52.006;4.720;2022-09-09T00:33:38;4.17;;;2.77;;
18435;SDS011;9346;52.006;4.720;2022-09-09T00:36:09;4.37;;;2.87;;
18435;SDS011;9346;52.006;4.720;2022-09-09T00:38:42;3.63;;;2.90;;
18435;SDS011;9346;52.006;4.720;2022-09-09T00:41:13;3.37;;;2.50;;
18435;SDS011;9346;52.006;4.720;2022-09-09T00:43:46;4.17;;;3.00;;
18435;SDS011;9346;52.006;4.720;2022-09-09T00:46:39;8.33;;;3.30;;
18435;SDS011;9346;52.006;4.720;2022-09-09T00:49:24;4.23;;;2.80;;
18435;SDS011;9346;52.006;4.720;2022-09-09T00:52:04;5.20;;;3.50;;
18435;SDS011;9346;52.006;4.720;2022-09-09T00:54:46;10.90;;;3.90;;
18435;SDS011;9346;52.006;4.720;2022-09-09T00:57:23;4.37;;;3.43;;
18435;SDS011;9346;52.006;4.720;2022-09-09T00:59:59;6.83;;;3.20;;
18435;SDS011;9346;52.006;4.720;2022-09-09T01:02:48;5.37;;;3.47;;
18435;SDS011;9346;52.006;4.720;2022-09-09T01:05:26;5.13;;;2.70;;
18435;SDS011;9346;52.006;4.720;2022-09-09T01:08:00;8.80;;;3.53;;
18435;SDS011;9346;52.006;4.720;2022-09-09T01:10:30;4.80;;;3.53;;
18435;SDS011;9346;52.006;4.720;2022-09-09T01:13:04;7.73;;;3.60;;
18435;SDS011;9346;52.006;4.720;2022-09-09T01:15:40;4.53;;;3.60;;
18435;SDS011;9346;52.006;4.720;2022-09-09T01:18:11;7.90;;;3.83;;
18435;SDS011;9346;52.006;4.720;2022-09-09T01:20:46;5.53;;;3.40;;
18435;SDS011;9346;52.006;4.720;2022-09-09T01:23:26;4.13;;;3.47;;
18435;SDS011;9346;52.006;4.720;2022-09-09T01:26:09;4.67;;;3.60;;
18435;SDS011;9346;52.006;4.720;2022-09-09T01:28:51;5.00;;;3.47;;
18435;SDS011;9346;52.006;4.720;2022-09-09T01:31:19;4.67;;;3.80;;
18435;SDS011;9346;52.006;4.720;2022-09-09T01:33:48;4.77;;;3.53;;
18435;SDS011;9346;52.006;4.720;2022-09-09T01:36:18;5.07;;;3.10;;
18435;SDS011;9346;52.006;4.720;2022-09-09T01:38:51;4.90;;;3.60;;
18435;SDS011;9346;52.006;4.720;2022-09-09T01:41:20;6.93;;;3.87;;
18435;SDS011;9346;52.006;4.720;2022-09-09T01:43:47;4.90;;;3.97;;
18435;SDS011;9346;52.006;4.720;2022-09-09T01:46:15;4.00;;;3.47;;
18435;SDS011;9346;52.006;4.720;2022-09-09T01:48:43;6.00;;;3.83;;
18435;SDS011;9346;52.006;4.720;2022-09-09T01:51:12;5.73;;;3.70;;
18435;SDS011;9346;52.006;4.720;2022-09-09T01:53:39;5.10;;;3.90;;
18435;SDS011;9346;52.006;4.720;2022-09-09T01:56:11;7.83;;;4.07;;
18435;SDS011;9346;52.006;4.720;2022-09-09T01:58:53;4.67;;;3.83;;
18435;SDS011;9346;52.006;4.720;2022-09-09T02:01:34;10.87;;;4.40;;
18435;SDS011;9346;52.006;4.720;2022-09-09T02:04:16;4.10;;;3.40;;
18435;SDS011;9346;52.006;4.720;2022-09-09T02:06:54;7.47;;;4.30;;
18435;SDS011;9346;52.006;4.720;2022-09-09T02:09:23;7.30;;;3.60;;
18435;SDS011;9346;52.006;4.720;2022-09-09T02:11:53;5.77;;;4.70;;
18435;SDS011;9346;52.006;4.720;2022-09-09T02:14:27;6.87;;;3.87;;
18435;SDS011;9346;52.006;4.720;2022-09-09T02:17:01;4.97;;;4.17;;
18435;SDS011;9346;52.006;4.720;2022-09-09T02:19:35;8.33;;;4.43;;
18435;SDS011;9346;52.006;4.720;2022-09-09T02:22:05;4.67;;;3.57;;
18435;SDS011;9346;52.006;4.720;2022-09-09T02:24:34;7.90;;;4.03;;
18435;SDS011;9346;52.006;4.720;2022-09-09T02:27:04;5.43;;;3.90;;
18435;SDS011;9346;52.006;4.720;2022-09-09T02:29:36;7.50;;;3.67;;
18435;SDS011;9346;52.006;4.720;2022-09-09T02:32:08;5.00;;;3.73;;
18435;SDS011;9346;52.006;4.720;2022-09-09T02:34:40;5.13;;;3.50;;
18435;SDS011;9346;52.006;4.720;2022-09-09T02:37:11;7.27;;;4.60;;
18435;SDS011;9346;52.006;4.720;2022-09-09T02:39:41;5.73;;;4.40;;
18435;SDS011;9346;52.006;4.720;2022-09-09T02:42:09;7.37;;;3.97;;
18435;SDS011;9346;52.006;4.720;2022-09-09T02:44:37;5.10;;;4.20;;
18435;SDS011;9346;52.006;4.720;2022-09-09T02:47:12;5.37;;;3.70;;
18435;SDS011;9346;52.006;4.720;2022-09-09T02:49:56;9.70;;;4.70;;
18435;SDS011;9346;52.006;4.720;2022-09-09T02:52:32;9.17;;;4.80;;
18435;SDS011;9346;52.006;4.720;2022-09-09T02:55:06;8.40;;;4.53;;
18435;SDS011;9346;52.006;4.720;2022-09-09T02:57:41;10.00;;;4.60;;
18435;SDS011;9346;52.006;4.720;2022-09-09T03:00:14;7.97;;;5.27;;
18435;SDS011;9346;52.006;4.720;2022-09-09T03:02:41;8.20;;;4.90;;
18435;SDS011;9346;52.006;4.720;2022-09-09T03:05:10;9.63;;;5.03;;
18435;SDS011;9346;52.006;4.720;2022-09-09T03:07:38;8.47;;;4.73;;
18435;SDS011;9346;52.006;4.720;2022-09-09T03:10:05;9.27;;;4.83;;
18435;SDS011;9346;52.006;4.720;2022-09-09T03:12:33;9.30;;;4.43;;
18435;SDS011;9346;52.006;4.720;2022-09-09T03:15:00;5.57;;;4.90;;
18435;SDS011;9346;52.006;4.720;2022-09-09T03:17:28;11.63;;;5.27;;
18435;SDS011;9346;52.006;4.720;2022-09-09T03:19:55;7.20;;;5.17;;
18435;SDS011;9346;52.006;4.720;2022-09-09T03:22:22;5.57;;;4.57;;
18435;SDS011;9346;52.006;4.720;2022-09-09T03:24:50;6.60;;;4.47;;
18435;SDS011;9346;52.006;4.720;2022-09-09T03:27:17;6.70;;;4.40;;
18435;SDS011;9346;52.006;4.720;2022-09-09T03:29:45;6.83;;;4.63;;
18435;SDS011;9346;52.006;4.720;2022-09-09T03:32:14;7.50;;;5.00;;
18435;SDS011;9346;52.006;4.720;2022-09-09T03:34:44;4.87;;;4.13;;
18435;SDS011;9346;52.006;4.720;2022-09-09T03:37:12;6.40;;;4.60;;
18435;SDS011;9346;52.006;4.720;2022-09-09T03:39:39;5.80;;;4.60;;
18435;SDS011;9346;52.006;4.720;2022-09-09T03:42:06;6.37;;;4.17;;
18435;SDS011;9346;52.006;4.720;2022-09-09T03:44:33;8.57;;;4.97;;
18435;SDS011;9346;52.006;4.720;2022-09-09T03:47:00;4.40;;;3.83;;
18435;SDS011;9346;52.006;4.720;2022-09-09T03:49:27;6.07;;;3.90;;
18435;SDS011;9346;52.006;4.720;2022-09-09T03:51:56;5.17;;;3.43;;
18435;SDS011;9346;52.006;4.720;2022-09-09T03:54:24;5.80;;;3.67;;
18435;SDS011;9346;52.006;4.720;2022-09-09T03:56:52;4.73;;;3.77;;
18435;SDS011;9346;52.006;4.720;2022-09-09T03:59:19;4.93;;;3.27;;
18435;SDS011;9346;52.006;4.720;2022-09-09T04:01:46;7.13;;;3.63;;
18435;SDS011;9346;52.006;4.720;2022-09-09T04:04:13;4.13;;;3.17;;
18435;SDS011;9346;52.006;4.720;2022-09-09T04:06:40;5.20;;;3.03;;
18435;SDS011;9346;52.006;4.720;2022-09-09T04:09:09;4.77;;;3.17;;
18435;SDS011;9346;52.006;4.720;2022-09-09T04:11:35;4.23;;;3.20;;
18435;SDS011;9346;52.006;4.720;2022-09-09T04:14:03;4.50;;;2.63;;
18435;SDS011;9346;52.006;4.720;2022-09-09T04:16:31;8.13;;;3.43;;
18435;SDS011;9346;52.006;4.720;2022-09-09T04:18:58;3.90;;;2.83;;
18435;SDS011;9346;52.006;4.720;2022-09-09T04:21:25;6.97;;;3.03;;
18435;SDS011;9346;52.006;4.720;2022-09-09T04:23:52;5.60;;;2.30;;
18435;SDS011;9346;52.006;4.720;2022-09-09T04:26:20;2.70;;;2.47;;
18435;SDS011;9346;52.006;4.720;2022-09-09T04:28:48;5.07;;;2.30;;
18435;SDS011;9346;52.006;4.720;2022-09-09T04:31:15;2.03;;;1.87;;
18435;SDS011;9346;52.006;4.720;2022-09-09T04:33:45;4.20;;;2.30;;
18435;SDS011;9346;52.006;4.720;2022-09-09T04:36:12;6.97;;;2.63;;
18435;SDS011;9346;52.006;4.720;2022-09-09T04:38:39;5.23;;;2.03;;
18435;SDS011;9346;52.006;4.720;2022-09-09T04:41:06;2.93;;;2.27;;
18435;SDS011;9346;52.006;4.720;2022-09-09T04:43:37;5.00;;;1.97;;
18435;SDS011;9346;52.006;4.720;2022-09-09T04:46:05;2.40;;;2.07;;
18435;SDS011;9346;52.006;4.720;2022-09-09T04:48:32;2.67;;;1.80;;
18435;SDS011;9346;52.006;4.720;2022-09-09T04:51:00;5.77;;;2.90;;
18435;SDS011;9346;52.006;4.720;2022-09-09T04:53:29;5.10;;;2.70;;
18435;SDS011;9346;52.006;4.720;2022-09-09T04:56:02;4.97;;;2.47;;
18435;SDS011;9346;52.006;4.720;2022-09-09T04:58:30;5.73;;;2.87;;
18435;SDS011;9346;52.006;4.720;2022-09-09T05:01:04;3.57;;;2.40;;
18435;SDS011;9346;52.006;4.720;2022-09-09T05:03:32;5.03;;;2.63;;
18435;SDS011;9346;52.006;4.720;2022-09-09T05:06:03;3.93;;;2.30;;
18435;SDS011;9346;52.006;4.720;2022-09-09T05:08:31;2.40;;;1.80;;
18435;SDS011;9346;52.006;4.720;2022-09-09T05:10:58;2.40;;;2.03;;
18435;SDS011;9346;52.006;4.720;2022-09-09T05:13:26;2.90;;;1.80;;
18435;SDS011;9346;52.006;4.720;2022-09-09T05:15:53;2.80;;;1.80;;
18435;SDS011;9346;52.006;4.720;2022-09-09T05:18:22;2.67;;;2.00;;
18435;SDS011;9346;52.006;4.720;2022-09-09T05:20:49;4.60;;;2.50;;
18435;SDS011;9346;52.006;4.720;2022-09-09T05:23:17;5.77;;;2.13;;
18435;SDS011;9346;52.006;4.720;2022-09-09T05:25:43;4.07;;;2.07;;
18435;SDS011;9346;52.006;4.720;2022-09-09T05:28:20;9.67;;;3.00;;
18435;SDS011;9346;52.006;4.720;2022-09-09T05:30:54;10.30;;;2.53;;
18435;SDS011;9346;52.006;4.720;2022-09-09T05:33:24;3.60;;;2.30;;
18435;SDS011;9346;52.006;4.720;2022-09-09T05:35:55;7.83;;;2.73;;
18435;SDS011;9346;52.006;4.720;2022-09-09T05:38:22;5.20;;;2.40;;
18435;SDS011;9346;52.006;4.720;2022-09-09T05:40:50;7.93;;;3.03;;
18435;SDS011;9346;52.006;4.720;2022-09-09T05:43:18;3.80;;;1.83;;
18435;SDS011;9346;52.006;4.720;2022-09-09T05:45:46;5.33;;;2.10;;
18435;SDS011;9346;52.006;4.720;2022-09-09T05:48:13;4.70;;;2.77;;
18435;SDS011;9346;52.006;4.720;2022-09-09T05:50:43;3.67;;;2.40;;
18435;SDS011;9346;52.006;4.720;2022-09-09T05:53:11;6.33;;;2.50;;
18435;SDS011;9346;52.006;4.720;2022-09-09T05:55:37;5.90;;;2.40;;
18435;SDS011;9346;52.006;4.720;2022-09-09T05:58:05;5.17;;;2.63;;
18435;SDS011;9346;52.006;4.720;2022-09-09T06:00:32;4.70;;;2.83;;
18435;SDS011;9346;52.006;4.720;2022-09-09T06:02:59;5.43;;;3.00;;
18435;SDS011;9346;52.006;4.720;2022-09-09T06:05:26;7.90;;;2.47;;
18435;SDS011;9346;52.006;4.720;2022-09-09T06:07:55;7.80;;;2.50;;
18435;SDS011;9346;52.006;4.720;2022-09-09T06:10:22;9.23;;;2.77;;
18435;SDS011;9346;52.006;4.720;2022-09-09T06:12:52;8.13;;;2.50;;
18435;SDS011;9346;52.006;4.720;2022-09-09T06:15:19;9.37;;;2.67;;
18435;SDS011;9346;52.006;4.720;2022-09-09T06:17:47;2.93;;;2.13;;
18435;SDS011;9346;52.006;4.720;2022-09-09T06:20:21;7.63;;;2.90;;
18435;SDS011;9346;52.006;4.720;2022-09-09T06:22:48;4.57;;;1.87;;
18435;SDS011;9346;52.006;4.720;2022-09-09T06:25:17;4.33;;;1.73;;
18435;SDS011;9346;52.006;4.720;2022-09-09T06:27:47;3.97;;;2.20;;
18435;SDS011;9346;52.006;4.720;2022-09-09T06:30:16;3.70;;;2.13;;
18435;SDS011;9346;52.006;4.720;2022-09-09T06:32:45;8.50;;;2.73;;
18435;SDS011;9346;52.006;4.720;2022-09-09T06:35:12;2.80;;;1.70;;
18435;SDS011;9346;52.006;4.720;2022-09-09T06:37:39;6.73;;;2.00;;
18435;SDS011;9346;52.006;4.720;2022-09-09T06:40:11;5.37;;;2.10;;
18435;SDS011;9346;52.006;4.720;2022-09-09T06:42:42;7.00;;;2.33;;
18435;SDS011;9346;52.006;4.720;2022-09-09T06:45:09;2.77;;;1.67;;
18435;SDS011;9346;52.006;4.720;2022-09-09T06:47:37;4.07;;;2.30;;
18435;SDS011;9346;52.006;4.720;2022-09-09T06:50:04;5.63;;;2.27;;
18435;SDS011;9346;52.006;4.720;2022-09-09T06:52:34;11.03;;;3.00;;
18435;SDS011;9346;52.006;4.720;2022-09-09T06:55:00;5.33;;;2.70;;
18435;SDS011;9346;52.006;4.720;2022-09-09T06:57:30;8.20;;;2.90;;
18435;SDS011;9346;52.006;4.720;2022-09-09T06:59:58;5.17;;;3.27;;
18435;SDS011;9346;52.006;4.720;2022-09-09T07:02:25;6.50;;;3.00;;
18435;SDS011;9346;52.006;4.720;2022-09-09T07:04:53;3.87;;;2.77;;
18435;SDS011;9346;52.006;4.720;2022-09-09T07:07:20;4.67;;;2.80;;
18435;SDS011;9346;52.006;4.720;2022-09-09T07:09:47;4.47;;;2.80;;
18435;SDS011;9346;52.006;4.720;2022-09-09T07:12:15;6.80;;;3.30;;
18435;SDS011;9346;52.006;4.720;2022-09-09T07:14:42;5.10;;;3.00;;
18435;SDS011;9346;52.006;4.720;2022-09-09T07:17:11;10.43;;;3.30;;
18435;SDS011;9346;52.006;4.720;2022-09-09T07:19:38;4.63;;;3.30;;
18435;SDS011;9346;52.006;4.720;2022-09-09T07:22:05;5.50;;;3.27;;
18435;SDS011;9346;52.006;4.720;2022-09-09T07:24:32;5.40;;;3.53;;
18435;SDS011;9346;52.006;4.720;2022-09-09T07:26:58;4.23;;;3.10;;
18435;SDS011;9346;52.006;4.720;2022-09-09T07:29:26;5.63;;;3.37;;
18435;SDS011;9346;52.006;4.720;2022-09-09T07:31:53;5.40;;;3.30;;
18435;SDS011;9346;52.006;4.720;2022-09-09T07:34:21;3.93;;;3.17;;
18435;SDS011;9346;52.006;4.720;2022-09-09T07:36:48;8.10;;;3.30;;
18435;SDS011;9346;52.006;4.720;2022-09-09T07:39:15;5.10;;;3.17;;
18435;SDS011;9346;52.006;4.720;2022-09-09T07:41:43;6.37;;;3.80;;
18435;SDS011;9346;52.006;4.720;2022-09-09T07:44:12;3.20;;;2.77;;
18435;SDS011;9346;52.006;4.720;2022-09-09T07:46:41;4.43;;;3.23;;
18435;SDS011;9346;52.006;4.720;2022-09-09T07:49:10;8.00;;;3.60;;
18435;SDS011;9346;52.006;4.720;2022-09-09T07:51:40;7.23;;;3.33;;
18435;SDS011;9346;52.006;4.720;2022-09-09T07:54:09;7.40;;;3.50;;
18435;SDS011;9346;52.006;4.720;2022-09-09T07:56:38;4.37;;;3.30;;
18435;SDS011;9346;52.006;4.720;2022-09-09T07:59:06;6.47;;;3.60;;
18435;SDS011;9346;52.006;4.720;2022-09-09T08:01:34;6.87;;;3.30;;
18435;SDS011;9346;52.006;4.720;2022-09-09T08:04:06;6.93;;;3.27;;
18435;SDS011;9346;52.006;4.720;2022-09-09T08:06:44;5.37;;;3.17;;
18435;SDS011;9346;52.006;4.720;2022-09-09T08:09:26;5.10;;;2.90;;
18435;SDS011;9346;52.006;4.720;2022-09-09T08:11:58;5.80;;;3.00;;
18435;SDS011;9346;52.006;4.720;2022-09-09T08:15:13;4.80;;;3.27;;
18435;SDS011;9346;52.006;4.720;2022-09-09T08:17:40;5.23;;;2.93;;
18435;SDS011;9346;52.006;4.720;2022-09-09T08:20:20;4.50;;;3.23;;
18435;SDS011;9346;52.006;4.720;2022-09-09T08:22:52;5.83;;;3.07;;
18435;SDS011;9346;52.006;4.720;2022-09-09T08:25:28;4.57;;;2.97;;
18435;SDS011;9346;52.006;4.720;2022-09-09T08:28:17;11.93;;;4.70;;
18435;SDS011;9346;52.006;4.720;2022-09-09T08:30:46;4.50;;;2.40;;
18435;SDS011;9346;52.006;4.720;2022-09-09T08:33:18;4.90;;;2.83;;
18435;SDS011;9346;52.006;4.720;2022-09-09T08:36:28;6.00;;;2.97;;
18435;SDS011;9346;52.006;4.720;2022-09-09T08:39:07;4.27;;;2.50;;
18435;SDS011;9346;52.006;4.720;2022-09-09T08:41:39;2.97;;;2.60;;
18435;SDS011;9346;52.006;4.720;2022-09-09T08:44:18;3.17;;;2.67;;
18435;SDS011;9346;52.006;4.720;2022-09-09T08:46:57;7.23;;;3.10;;
18435;SDS011;9346;52.006;4.720;2022-09-09T08:49:40;5.47;;;2.97;;
18435;SDS011;9346;52.006;4.720;2022-09-09T08:52:24;4.80;;;2.37;;
18435;SDS011;9346;52.006;4.720;2022-09-09T08:54:57;5.60;;;2.40;;
18435;SDS011;9346;52.006;4.720;2022-09-09T08:57:39;5.40;;;2.20;;
18435;SDS011;9346;52.006;4.720;2022-09-09T09:00:08;5.37;;;2.83;;
18435;SDS011;9346;52.006;4.720;2022-09-09T09:02:38;3.57;;;2.17;;
18435;SDS011;9346;52.006;4.720;2022-09-09T09:05:14;7.97;;;2.43;;
18435;SDS011;9346;52.006;4.720;2022-09-09T09:07:53;3.53;;;2.40;;
18435;SDS011;9346;52.006;4.720;2022-09-09T09:10:39;5.10;;;2.30;;
18435;SDS011;9346;52.006;4.720;2022-09-09T09:13:14;3.70;;;2.47;;
18435;SDS011;9346;52.006;4.720;2022-09-09T09:15:43;3.20;;;2.27;;
18435;SDS011;9346;52.006;4.720;2022-09-09T09:18:13;4.90;;;2.63;;
18435;SDS011;9346;52.006;4.720;2022-09-09T09:20:42;7.20;;;3.30;;
18435;SDS011;9346;52.006;4.720;2022-09-09T09:23:19;9.07;;;3.53;;
18435;SDS011;9346;52.006;4.720;2022-09-09T09:25:52;8.67;;;2.37;;
18435;SDS011;9346;52.006;4.720;2022-09-09T09:28:27;3.80;;;2.43;;
18435;SDS011;9346;52.006;4.720;2022-09-09T09:30:59;3.53;;;2.37;;
18435;SDS011;9346;52.006;4.720;2022-09-09T09:33:31;4.87;;;1.83;;
18435;SDS011;9346;52.006;4.720;2022-09-09T09:36:02;3.93;;;1.97;;
18435;SDS011;9346;52.006;4.720;2022-09-09T09:38:33;4.87;;;1.93;;
18435;SDS011;9346;52.006;4.720;2022-09-09T09:41:03;4.77;;;2.03;;
18435;SDS011;9346;52.006;4.720;2022-09-09T09:43:31;4.50;;;2.00;;
18435;SDS011;9346;52.006;4.720;2022-09-09T09:46:00;2.20;;;1.87;;
18435;SDS011;9346;52.006;4.720;2022-09-09T09:48:29;5.73;;;2.53;;
18435;SDS011;9346;52.006;4.720;2022-09-09T09:50:57;4.90;;;1.97;;
18435;SDS011;9346;52.006;4.720;2022-09-09T09:53:28;4.00;;;1.70;;
18435;SDS011;9346;52.006;4.720;2022-09-09T09:55:57;4.43;;;2.33;;
18435;SDS011;9346;52.006;4.720;2022-09-09T09:58:28;4.23;;;2.20;;
18435;SDS011;9346;52.006;4.720;2022-09-09T10:00:59;7.90;;;2.87;;
18435;SDS011;9346;52.006;4.720;2022-09-09T10:03:28;2.50;;;2.27;;
18435;SDS011;9346;52.006;4.720;2022-09-09T10:05:56;4.50;;;2.53;;
18435;SDS011;9346;52.006;4.720;2022-09-09T10:08:24;6.50;;;3.10;;
18435;SDS011;9346;52.006;4.720;2022-09-09T10:11:04;2.93;;;2.20;;
18435;SDS011;9346;52.006;4.720;2022-09-09T10:13:49;4.27;;;2.50;;
18435;SDS011;9346;52.006;4.720;2022-09-09T10:16:26;9.90;;;2.40;;
18435;SDS011;9346;52.006;4.720;2022-09-09T10:19:01;2.97;;;1.93;;
18435;SDS011;9346;52.006;4.720;2022-09-09T10:24:30;7.57;;;2.63;;
18435;SDS011;9346;52.006;4.720;2022-09-09T10:27:21;6.17;;;2.10;;
18435;SDS011;9346;52.006;4.720;2022-09-09T10:30:00;3.70;;;2.10;;
18435;SDS011;9346;52.006;4.720;2022-09-09T10:32:38;7.57;;;2.27;;
18435;SDS011;9346;52.006;4.720;2022-09-09T10:35:14;6.00;;;2.40;;
18435;SDS011;9346;52.006;4.720;2022-09-09T10:37:58;5.90;;;2.13;;
18435;SDS011;9346;52.006;4.720;2022-09-09T10:40:45;3.47;;;2.03;;
18435;SDS011;9346;52.006;4.720;2022-09-09T10:43:29;4.03;;;2.17;;
18435;SDS011;9346;52.006;4.720;2022-09-09T10:46:11;3.43;;;1.93;;
18435;SDS011;9346;52.006;4.720;2022-09-09T10:48:49;5.67;;;1.97;;
18435;SDS011;9346;52.006;4.720;2022-09-09T10:51:30;4.47;;;1.60;;
18435;SDS011;9346;52.006;4.720;2022-09-09T10:54:13;4.93;;;2.20;;
18435;SDS011;9346;52.006;4.720;2022-09-09T10:57:03;2.33;;;2.10;;
18435;SDS011;9346;52.006;4.720;2022-09-09T10:59:36;5.23;;;1.67;;
18435;SDS011;9346;52.006;4.720;2022-09-09T11:02:10;4.43;;;1.97;;
18435;SDS011;9346;52.006;4.720;2022-09-09T11:04:44;5.20;;;1.97;;
18435;SDS011;9346;52.006;4.720;2022-09-09T11:07:17;4.17;;;1.50;;
18435;SDS011;9346;52.006;4.720;2022-09-09T11:09:53;3.77;;;2.10;;
18435;SDS011;9346;52.006;4.720;2022-09-09T11:12:26;4.77;;;2.00;;
18435;SDS011;9346;52.006;4.720;2022-09-09T11:14:57;4.17;;;2.00;;
18435;SDS011;9346;52.006;4.720;2022-09-09T11:17:30;3.57;;;1.70;;
18435;SDS011;9346;52.006;4.720;2022-09-09T11:20:05;2.67;;;1.87;;
18435;SDS011;9346;52.006;4.720;2022-09-09T11:22:33;2.57;;;1.40;;
18435;SDS011;9346;52.006;4.720;2022-09-09T11:25:06;4.87;;;2.17;;
18435;SDS011;9346;52.006;4.720;2022-09-09T11:27:42;2.90;;;1.80;;
18435;SDS011;9346;52.006;4.720;2022-09-09T11:30:21;5.93;;;2.53;;
18435;SDS011;9346;52.006;4.720;2022-09-09T11:35:49;4.10;;;2.57;;
18435;SDS011;9346;52.006;4.720;2022-09-09T11:38:29;2.43;;;2.20;;
18435;SDS011;9346;52.006;4.720;2022-09-09T11:41:04;8.60;;;2.50;;
18435;SDS011;9346;52.006;4.720;2022-09-09T11:43:38;2.57;;;2.37;;
18435;SDS011;9346;52.006;4.720;2022-09-09T11:46:07;4.73;;;2.53;;
18435;SDS011;9346;52.006;4.720;2022-09-09T11:48:40;2.70;;;2.20;;
18435;SDS011;9346;52.006;4.720;2022-09-09T11:51:11;2.30;;;2.10;;
18435;SDS011;9346;52.006;4.720;2022-09-09T11:53:52;4.30;;;2.87;;
18435;SDS011;9346;52.006;4.720;2022-09-09T11:56:24;4.07;;;2.47;;
18435;SDS011;9346;52.006;4.720;2022-09-09T11:58:54;5.70;;;2.67;;
18435;SDS011;9346;52.006;4.720;2022-09-09T12:01:27;4.73;;;2.53;;
18435;SDS011;9346;52.006;4.720;2022-09-09T12:06:59;4.77;;;2.67;;
18435;SDS011;9346;52.006;4.720;2022-09-09T12:09:40;3.33;;;3.03;;
18435;SDS011;9346;52.006;4.720;2022-09-09T12:12:23;5.07;;;2.77;;
18435;SDS011;9346;52.006;4.720;2022-09-09T12:17:54;7.20;;;3.40;;
18435;SDS011;9346;52.006;4.720;2022-09-09T12:20:26;3.50;;;2.67;;
18435;SDS011;9346;52.006;4.720;2022-09-09T12:23:13;3.90;;;3.03;;
18435;SDS011;9346;52.006;4.720;2022-09-09T12:25:48;6.80;;;3.50;;
18435;SDS011;9346;52.006;4.720;2022-09-09T12:28:24;4.00;;;2.63;;
18435;SDS011;9346;52.006;4.720;2022-09-09T12:31:03;7.10;;;3.50;;
18435;SDS011;9346;52.006;4.720;2022-09-09T12:33:34;4.00;;;2.93;;
18435;SDS011;9346;52.006;4.720;2022-09-09T12:36:07;7.97;;;3.07;;
18435;SDS011;9346;52.006;4.720;2022-09-09T12:38:40;3.03;;;2.70;;
18435;SDS011;9346;52.006;4.720;2022-09-09T12:41:17;4.77;;;3.03;;
18435;SDS011;9346;52.006;4.720;2022-09-09T12:43:46;6.50;;;3.33;;
18435;SDS011;9346;52.006;4.720;2022-09-09T12:46:16;3.57;;;2.53;;
18435;SDS011;9346;52.006;4.720;2022-09-09T12:48:51;2.60;;;2.10;;
18435;SDS011;9346;52.006;4.720;2022-09-09T12:51:23;3.17;;;2.77;;
18435;SDS011;9346;52.006;4.720;2022-09-09T12:53:53;4.43;;;2.30;;
18435;SDS011;9346;52.006;4.720;2022-09-09T12:56:22;4.13;;;2.53;;
18435;SDS011;9346;52.006;4.720;2022-09-09T12:58:52;3.77;;;2.67;;
18435;SDS011;9346;52.006;4.720;2022-09-09T13:01:22;4.80;;;2.93;;
18435;SDS011;9346;52.006;4.720;2022-09-09T13:03:51;3.90;;;2.50;;
18435;SDS011;9346;52.006;4.720;2022-09-09T13:06:20;3.40;;;2.00;;
18435;SDS011;9346;52.006;4.720;2022-09-09T13:08:50;3.33;;;2.13;;
18435;SDS011;9346;52.006;4.720;2022-09-09T13:11:18;3.53;;;2.27;;
18435;SDS011;9346;52.006;4.720;2022-09-09T13:13:50;4.87;;;2.23;;
18435;SDS011;9346;52.006;4.720;2022-09-09T13:16:20;8.63;;;2.50;;
18435;SDS011;9346;52.006;4.720;2022-09-09T13:18:49;4.97;;;2.63;;
18435;SDS011;9346;52.006;4.720;2022-09-09T13:21:16;4.43;;;2.30;;
18435;SDS011;9346;52.006;4.720;2022-09-09T13:23:50;2.97;;;2.20;;
18435;SDS011;9346;52.006;4.720;2022-09-09T13:26:20;3.70;;;2.20;;
18435;SDS011;9346;52.006;4.720;2022-09-09T13:28:50;3.20;;;2.40;;
18435;SDS011;9346;52.006;4.720;2022-09-09T13:31:20;3.83;;;2.07;;
18435;SDS011;9346;52.006;4.720;2022-09-09T13:33:48;3.20;;;2.40;;
18435;SDS011;9346;52.006;4.720;2022-09-09T13:36:26;3.00;;;1.57;;
18435;SDS011;9346;52.006;4.720;2022-09-09T13:38:58;2.73;;;1.60;;
18435;SDS011;9346;52.006;4.720;2022-09-09T13:41:28;3.03;;;2.10;;
18435;SDS011;9346;52.006;4.720;2022-09-09T13:43:58;3.77;;;2.43;;
18435;SDS011;9346;52.006;4.720;2022-09-09T13:46:31;3.47;;;2.03;;
18435;SDS011;9346;52.006;4.720;2022-09-09T13:49:00;4.43;;;2.67;;
18435;SDS011;9346;52.006;4.720;2022-09-09T13:51:32;3.13;;;2.33;;
18435;SDS011;9346;52.006;4.720;2022-09-09T13:54:03;2.40;;;1.90;;
18435;SDS011;9346;52.006;4.720;2022-09-09T13:56:32;8.50;;;2.60;;
18435;SDS011;9346;52.006;4.720;2022-09-09T13:58:58;5.53;;;2.03;;
18435;SDS011;9346;52.006;4.720;2022-09-09T14:01:25;2.40;;;2.03;;
18435;SDS011;9346;52.006;4.720;2022-09-09T14:03:52;3.50;;;2.53;;
18435;SDS011;9346;52.006;4.720;2022-09-09T14:06:20;4.87;;;1.80;;
18435;SDS011;9346;52.006;4.720;2022-09-09T14:08:50;1.50;;;1.40;;
18435;SDS011;9346;52.006;4.720;2022-09-09T14:11:21;1.73;;;1.30;;
18435;SDS011;9346;52.006;4.720;2022-09-09T14:13:48;1.67;;;1.30;;
18435;SDS011;9346;52.006;4.720;2022-09-09T14:16:15;1.90;;;1.13;;
18435;SDS011;9346;52.006;4.720;2022-09-09T14:18:43;3.07;;;1.27;;
18435;SDS011;9346;52.006;4.720;2022-09-09T14:21:10;1.37;;;1.03;;
18435;SDS011;9346;52.006;4.720;2022-09-09T14:23:37;1.57;;;1.30;;
18435;SDS011;9346;52.006;4.720;2022-09-09T14:26:05;1.40;;;1.20;;
18435;SDS011;9346;52.006;4.720;2022-09-09T14:28:35;2.00;;;1.40;;
18435;SDS011;9346;52.006;4.720;2022-09-09T14:31:07;3.53;;;1.20;;
18435;SDS011;9346;52.006;4.720;2022-09-09T14:33:35;1.60;;;1.30;;
18435;SDS011;9346;52.006;4.720;2022-09-09T14:36:03;2.33;;;1.30;;
18435;SDS011;9346;52.006;4.720;2022-09-09T14:38:30;2.67;;;1.47;;
18435;SDS011;9346;52.006;4.720;2022-09-09T14:41:03;1.57;;;1.47;;
18435;SDS011;9346;52.006;4.720;2022-09-09T14:43:31;2.97;;;1.50;;
18435;SDS011;9346;52.006;4.720;2022-09-09T14:45:59;3.47;;;1.40;;
18435;SDS011;9346;52.006;4.720;2022-09-09T14:48:31;2.10;;;1.33;;
18435;SDS011;9346;52.006;4.720;2022-09-09T14:51:04;1.23;;;1.13;;
18435;SDS011;9346;52.006;4.720;2022-09-09T14:53:33;3.20;;;1.97;;
18435;SDS011;9346;52.006;4.720;2022-09-09T14:56:04;4.13;;;1.63;;
18435;SDS011;9346;52.006;4.720;2022-09-09T14:58:33;5.83;;;1.67;;
18435;SDS011;9346;52.006;4.720;2022-09-09T15:01:16;1.70;;;1.60;;
18435;SDS011;9346;52.006;4.720;2022-09-09T15:03:48;3.67;;;1.77;;
18435;SDS011;9346;52.006;4.720;2022-09-09T15:06:16;4.70;;;1.37;;
18435;SDS011;9346;52.006;4.720;2022-09-09T15:08:44;3.63;;;1.47;;
18435;SDS011;9346;52.006;4.720;2022-09-09T15:11:12;1.57;;;1.00;;
18435;SDS011;9346;52.006;4.720;2022-09-09T15:13:41;1.83;;;1.10;;
18435;SDS011;9346;52.006;4.720;2022-09-09T15:16:10;2.40;;;1.50;;
18435;SDS011;9346;52.006;4.720;2022-09-09T15:18:39;2.20;;;1.67;;
18435;SDS011;9346;52.006;4.720;2022-09-09T15:21:07;2.23;;;1.83;;
18435;SDS011;9346;52.006;4.720;2022-09-09T15:23:35;2.37;;;0.93;;
18435;SDS011;9346;52.006;4.720;2022-09-09T15:26:03;5.50;;;1.30;;
18435;SDS011;9346;52.006;4.720;2022-09-09T15:28:32;1.37;;;1.20;;
18435;SDS011;9346;52.006;4.720;2022-09-09T15:31:04;2.03;;;1.17;;
18435;SDS011;9346;52.006;4.720;2022-09-09T15:33:33;1.30;;;1.20;;
18435;SDS011;9346;52.006;4.720;2022-09-09T15:36:11;1.57;;;1.03;;
18435;SDS011;9346;52.006;4.720;2022-09-09T15:38:39;1.17;;;1.03;;